createdAt,value
2022-10-22T00:00:03.260Z,1.40
2022-10-22T00:02:31.921Z,1.05
2022-10-22T00:04:58.896Z,1.35
2022-10-22T00:07:25.953Z,1.70
2022-10-22T00:09:52.856Z,1.67
2022-10-22T00:12:20.206Z,1.10
2022-10-22T00:14:47.258Z,1.33
2022-10-22T00:17:14.538Z,1.42
2022-10-22T00:19:41.801Z,1.38
2022-10-22T00:22:10.197Z,1.60
2022-10-22T00:24:39.047Z,1.50
2022-10-22T00:27:07.985Z,1.38
2022-10-22T00:29:34.893Z,1.50
2022-10-22T00:32:02.034Z,1.65
2022-10-22T00:34:28.890Z,1.35
2022-10-22T00:36:56.248Z,1.58
2022-10-22T00:39:26.034Z,1.55
2022-10-22T00:41:55.454Z,1.42
2022-10-22T00:44:59.755Z,1.77
2022-10-22T00:47:31.375Z,1.90
2022-10-22T00:50:00.105Z,1.45
2022-10-22T00:52:27.513Z,1.85
2022-10-22T00:54:54.758Z,1.80
2022-10-22T00:57:22.853Z,1.63
2022-10-22T00:59:50.122Z,2.08
2022-10-22T01:02:17.322Z,1.30
2022-10-22T01:04:44.863Z,1.60
2022-10-22T01:07:20.632Z,1.80
2022-10-22T01:10:03.339Z,1.50
2022-10-22T01:12:45.103Z,2.33
2022-10-22T01:15:14.597Z,1.50
2022-10-22T01:17:52.755Z,1.58
2022-10-22T01:20:58.458Z,1.80
2022-10-22T01:23:43.899Z,1.45
2022-10-22T01:26:21.740Z,1.85
2022-10-22T01:29:10.211Z,2.10
2022-10-22T01:31:44.594Z,1.88
2022-10-22T01:34:16.019Z,2.13
2022-10-22T01:36:44.895Z,1.70
2022-10-22T01:39:15.085Z,1.70
2022-10-22T01:41:45.483Z,1.88
2022-10-22T01:44:29.725Z,1.80
2022-10-22T01:47:17.385Z,1.70
2022-10-22T01:50:05.808Z,1.52
2022-10-22T01:52:38.417Z,1.45
2022-10-22T01:55:28.425Z,1.50
2022-10-22T01:58:38.379Z,1.58
2022-10-22T02:01:17.932Z,1.65
2022-10-22T02:03:58.547Z,1.80
2022-10-22T02:06:27.488Z,2.10
2022-10-22T02:08:55.735Z,1.73
2022-10-22T02:11:22.749Z,1.38
2022-10-22T02:13:53.612Z,1.95
2022-10-22T02:16:32.453Z,2.05
2022-10-22T02:19:03.988Z,1.67
2022-10-22T02:21:31.834Z,1.30
2022-10-22T02:23:59.074Z,1.70
2022-10-22T02:26:33.947Z,1.40
2022-10-22T02:29:25.831Z,2.28
2022-10-22T02:31:55.985Z,1.38
2022-10-22T02:34:27.786Z,1.60
2022-10-22T02:36:55.641Z,1.40
2022-10-22T02:39:23.264Z,1.63
2022-10-22T02:41:50.161Z,1.80
2022-10-22T02:44:21.448Z,2.00
2022-10-22T02:46:49.951Z,1.83
2022-10-22T02:49:16.989Z,1.70
2022-10-22T02:51:43.818Z,1.40
2022-10-22T02:54:10.810Z,1.55
2022-10-22T02:56:37.696Z,1.48
2022-10-22T02:59:04.639Z,1.52
2022-10-22T03:01:31.551Z,1.33
2022-10-22T03:03:58.455Z,2.10
2022-10-22T03:08:57.938Z,1.52
2022-10-22T03:11:24.897Z,1.92
2022-10-22T03:13:51.817Z,1.38
2022-10-22T03:16:18.678Z,1.42
2022-10-22T03:18:45.592Z,1.45
2022-10-22T03:21:21.852Z,1.52
2022-10-22T03:23:49.215Z,1.75
2022-10-22T03:26:16.176Z,1.33
2022-10-22T03:28:43.706Z,1.55
2022-10-22T03:31:10.636Z,1.25
2022-10-22T03:33:37.501Z,1.75
2022-10-22T03:36:04.686Z,1.52
2022-10-22T03:38:31.765Z,1.65
2022-10-22T03:40:59.026Z,1.70
2022-10-22T03:43:26.063Z,1.38
2022-10-22T03:45:52.962Z,1.40
2022-10-22T03:48:20.124Z,1.55
2022-10-22T03:50:46.992Z,1.30
2022-10-22T03:53:13.919Z,1.67
2022-10-22T03:55:41.787Z,1.83
2022-10-22T03:58:08.750Z,1.50
2022-10-22T04:00:36.562Z,1.90
2022-10-22T04:03:04.284Z,1.38
2022-10-22T04:05:33.676Z,1.58
2022-10-22T04:08:00.648Z,1.45
2022-10-22T04:10:27.495Z,1.40
2022-10-22T04:12:54.428Z,1.42
2022-10-22T04:15:21.324Z,1.55
2022-10-22T04:17:48.535Z,1.90
2022-10-22T04:20:15.446Z,1.80
2022-10-22T04:22:42.467Z,2.55
2022-10-22T04:25:09.777Z,1.30
2022-10-22T04:27:36.863Z,1.70
2022-10-22T04:30:06.635Z,1.40
2022-10-22T04:32:33.502Z,1.70
2022-10-22T04:35:00.476Z,1.80
2022-10-22T04:37:27.296Z,1.67
2022-10-22T04:39:54.126Z,1.75
2022-10-22T04:42:20.972Z,1.65
2022-10-22T04:44:47.829Z,1.58
2022-10-22T04:47:14.739Z,1.50
2022-10-22T04:49:41.681Z,1.55
2022-10-22T04:52:08.585Z,1.45
2022-10-22T04:54:35.486Z,1.90
2022-10-22T04:57:02.364Z,1.98
2022-10-22T04:59:29.299Z,1.70
2022-10-22T05:01:56.248Z,2.00
2022-10-22T05:04:23.149Z,2.05
2022-10-22T05:06:50.045Z,2.05
2022-10-22T05:09:19.490Z,1.50
2022-10-22T05:11:49.154Z,1.55
2022-10-22T05:14:19.064Z,1.70
2022-10-22T05:16:48.563Z,1.95
2022-10-22T05:19:24.218Z,1.80
2022-10-22T05:21:53.209Z,1.73
2022-10-22T05:24:20.537Z,1.65
2022-10-22T05:26:53.431Z,1.70
2022-10-22T05:29:21.045Z,1.70
2022-10-22T05:31:48.134Z,2.17
2022-10-22T05:34:15.958Z,1.48
2022-10-22T05:36:42.981Z,1.98
2022-10-22T05:39:10.453Z,1.67
2022-10-22T05:41:37.758Z,1.50
2022-10-22T05:44:05.478Z,1.90
2022-10-22T05:46:36.040Z,1.38
2022-10-22T05:49:05.828Z,1.92
2022-10-22T05:51:34.747Z,1.75
2022-10-22T05:54:04.104Z,2.17
2022-10-22T05:56:35.054Z,1.85
2022-10-22T06:01:38.066Z,1.70
2022-10-22T06:04:07.902Z,1.75
2022-10-22T06:06:44.559Z,1.67
2022-10-22T06:09:26.488Z,1.40
2022-10-22T06:11:54.058Z,1.70
2022-10-22T06:14:21.127Z,1.77
2022-10-22T06:16:49.177Z,1.58
2022-10-22T06:19:17.922Z,1.70
2022-10-22T06:21:45.048Z,1.70
2022-10-22T06:24:12.411Z,1.50
2022-10-22T06:26:39.856Z,1.90
2022-10-22T06:29:07.499Z,1.50
2022-10-22T06:31:37.086Z,1.77
2022-10-22T06:34:10.485Z,1.88
2022-10-22T06:36:37.893Z,1.77
2022-10-22T06:39:05.588Z,1.20
2022-10-22T06:41:32.539Z,1.65
2022-10-22T06:44:00.217Z,1.50
2022-10-22T06:46:27.276Z,1.38
2022-10-22T06:48:57.525Z,1.65
2022-10-22T06:51:25.600Z,1.48
2022-10-22T06:53:53.918Z,1.73
2022-10-22T06:56:23.927Z,2.20
2022-10-22T06:58:51.981Z,1.90
2022-10-22T07:01:21.155Z,1.88
2022-10-22T07:03:50.963Z,1.90
2022-10-22T07:06:18.551Z,1.92
2022-10-22T07:08:45.516Z,1.52
2022-10-22T07:11:18.096Z,1.88
2022-10-22T07:13:45.522Z,1.83
2022-10-22T07:16:13.038Z,1.80
2022-10-22T07:18:41.217Z,1.85
2022-10-22T07:21:09.828Z,1.83
2022-10-22T07:23:37.278Z,1.73
2022-10-22T07:26:07.526Z,1.70
2022-10-22T07:28:36.724Z,1.50
2022-10-22T07:31:03.862Z,2.03
2022-10-22T07:33:30.798Z,1.45
2022-10-22T07:35:59.933Z,1.85
2022-10-22T07:38:27.511Z,1.58
2022-10-22T07:40:55.113Z,1.67
2022-10-22T07:43:22.312Z,1.90
2022-10-22T07:45:49.251Z,1.52
2022-10-22T07:48:16.506Z,1.35
2022-10-22T07:53:11.392Z,2.15
2022-10-22T07:55:38.290Z,1.33
2022-10-22T07:58:05.290Z,1.40
2022-10-22T08:00:32.262Z,1.60
2022-10-22T08:02:59.186Z,1.80
2022-10-22T08:05:26.198Z,1.50
2022-10-22T08:07:53.116Z,1.08
2022-10-22T08:10:20.127Z,2.00
2022-10-22T08:12:47.153Z,1.55
2022-10-22T08:15:14.071Z,1.67
2022-10-22T08:17:41.200Z,1.80
2022-10-22T08:20:08.670Z,1.30
2022-10-22T08:22:35.695Z,1.42
2022-10-22T08:25:02.704Z,1.58
2022-10-22T08:27:29.630Z,1.48
2022-10-22T08:29:56.560Z,1.80
2022-10-22T08:32:23.526Z,1.30
2022-10-22T08:34:50.507Z,1.80
2022-10-22T08:37:17.933Z,1.30
2022-10-22T08:39:45.317Z,1.50
2022-10-22T08:42:33.811Z,1.50
2022-10-22T08:45:14.775Z,1.48
2022-10-22T08:48:08.746Z,1.38
2022-10-22T08:50:48.932Z,1.38
2022-10-22T08:53:20.015Z,1.55
2022-10-22T08:55:47.641Z,1.48
2022-10-22T08:58:40.412Z,1.80
2022-10-22T09:01:15.198Z,1.48
2022-10-22T09:03:46.806Z,1.38
2022-10-22T09:06:25.724Z,1.92
2022-10-22T09:08:53.928Z,1.98
2022-10-22T09:11:39.297Z,1.45
2022-10-22T09:14:09.490Z,1.65
2022-10-22T09:16:36.349Z,1.83
2022-10-22T09:19:12.350Z,1.60
2022-10-22T09:21:46.417Z,3.22
2022-10-22T09:24:37.082Z,2.05
2022-10-22T09:27:16.695Z,1.23
2022-10-22T09:29:44.815Z,2.10
2022-10-22T09:32:11.949Z,1.45
2022-10-22T09:34:39.142Z,1.55
2022-10-22T09:37:10.040Z,1.40
2022-10-22T09:39:41.177Z,2.08
2022-10-22T09:42:08.646Z,1.52
2022-10-22T10:16:27.600Z,1.98
2022-10-22T10:19:10.570Z,1.80
2022-10-22T10:21:56.307Z,1.60
2022-10-22T10:24:23.133Z,1.75
2022-10-22T10:26:58.608Z,1.98
2022-10-22T10:29:25.525Z,1.70
2022-10-22T10:32:07.629Z,1.30
2022-10-22T10:34:53.773Z,1.77
2022-10-22T10:37:29.967Z,1.70
2022-10-22T10:40:28.900Z,1.70
2022-10-22T10:43:05.299Z,1.77
2022-10-22T10:45:42.601Z,4.28
2022-10-22T10:48:12.554Z,2.00
2022-10-22T10:50:55.176Z,2.13
2022-10-22T10:53:27.989Z,2.30
2022-10-22T10:56:22.024Z,1.98
2022-10-22T10:58:54.820Z,2.70
2022-10-22T11:01:27.825Z,1.92
2022-10-22T11:04:31.919Z,1.85
2022-10-22T11:07:11.009Z,1.70
2022-10-22T11:10:14.471Z,1.90
2022-10-22T11:12:48.962Z,1.70
2022-10-22T11:15:18.803Z,1.67
2022-10-22T11:17:48.882Z,1.90
2022-10-22T11:20:41.366Z,1.88
2022-10-22T11:23:20.322Z,2.28
2022-10-22T11:25:49.727Z,1.90
2022-10-22T11:28:19.555Z,1.73
2022-10-22T11:30:53.634Z,1.65
2022-10-22T11:33:25.766Z,1.70
2022-10-22T11:35:53.562Z,1.80
2022-10-22T11:38:26.418Z,1.88
2022-10-22T11:41:13.519Z,1.80
2022-10-22T11:46:22.120Z,1.92
2022-10-22T11:49:13.369Z,1.95
2022-10-22T11:51:42.706Z,1.52
2022-10-22T11:54:29.834Z,1.60
2022-10-22T11:57:22.488Z,1.95
2022-10-22T11:59:56.554Z,2.13
2022-10-22T12:02:29.442Z,2.00
2022-10-22T12:05:20.362Z,1.95
2022-10-22T12:08:00.273Z,2.08
2022-10-22T12:10:37.050Z,2.13
2022-10-22T12:13:24.838Z,1.77
2022-10-22T12:15:57.529Z,1.77
2022-10-22T12:18:31.718Z,1.77
2022-10-22T12:20:58.679Z,1.90
2022-10-22T12:23:30.896Z,1.58
2022-10-22T12:25:58.607Z,2.00
2022-10-22T12:28:25.524Z,1.80
2022-10-22T12:30:52.421Z,1.70
2022-10-22T12:33:24.093Z,1.73
2022-10-22T12:35:54.145Z,2.13
2022-10-22T12:38:24.391Z,1.65
2022-10-22T12:40:54.689Z,1.63
2022-10-22T12:43:29.922Z,2.13
2022-10-22T12:45:59.146Z,2.20
2022-10-22T12:48:34.089Z,1.95
2022-10-22T12:51:04.181Z,2.08
2022-10-22T12:53:35.419Z,1.83
2022-10-22T12:56:05.575Z,1.65
2022-10-22T12:58:42.576Z,1.80
2022-10-22T13:01:14.370Z,1.67
2022-10-22T13:03:47.307Z,2.38
2022-10-22T13:06:23.917Z,2.33
2022-10-22T13:12:01.720Z,1.90
2022-10-22T13:14:32.194Z,2.67
2022-10-22T13:17:12.965Z,1.92
2022-10-22T13:19:44.318Z,1.73
2022-10-22T13:22:26.189Z,1.77
2022-10-22T13:24:54.233Z,1.88
2022-10-22T13:27:21.209Z,1.92
2022-10-22T13:29:48.422Z,2.20
2022-10-22T13:32:31.752Z,2.00
2022-10-22T13:35:01.049Z,2.10
2022-10-22T13:37:30.220Z,2.65
2022-10-22T13:39:57.277Z,2.13
2022-10-22T13:42:25.015Z,2.50
2022-10-22T13:44:51.862Z,2.30
2022-10-22T13:47:29.601Z,2.75
2022-10-22T13:50:00.237Z,2.10
2022-10-22T13:52:40.758Z,2.65
2022-10-22T13:55:25.757Z,2.80
2022-10-22T13:57:55.517Z,2.45
2022-10-22T14:00:26.448Z,2.63
2022-10-22T14:02:57.228Z,2.63
2022-10-22T14:05:24.130Z,2.55
2022-10-22T14:07:52.168Z,2.55
2022-10-22T14:10:22.912Z,2.25
2022-10-22T14:12:53.390Z,2.38
2022-10-22T14:15:27.909Z,2.30
2022-10-22T14:18:00.585Z,3.00
2022-10-22T14:20:33.065Z,2.90
2022-10-22T14:23:20.097Z,3.42
2022-10-22T14:25:47.429Z,4.35
2022-10-22T14:28:14.708Z,5.38
2022-10-22T14:30:41.756Z,5.82
2022-10-22T14:33:22.122Z,5.45
2022-10-22T14:35:51.570Z,4.60
2022-10-22T14:38:18.629Z,4.97
2022-10-22T14:40:45.948Z,4.47
2022-10-22T14:43:31.319Z,4.35
2022-10-22T14:45:58.940Z,3.78
2022-10-22T14:48:25.766Z,4.80
2022-10-22T14:50:52.727Z,3.67
2022-10-22T14:53:19.638Z,3.08
2022-10-22T14:55:49.242Z,3.05
2022-10-22T14:58:16.466Z,2.92
2022-10-22T15:00:44.313Z,3.03
2022-10-22T15:03:11.910Z,3.17
2022-10-22T15:05:44.603Z,3.20
2022-10-22T15:08:13.696Z,2.85
2022-10-22T15:10:41.615Z,2.50
2022-10-22T15:13:09.201Z,3.17
2022-10-22T15:15:39.530Z,4.03
2022-10-22T15:18:07.524Z,3.03
2022-10-22T15:20:34.423Z,2.78
2022-10-22T15:23:01.418Z,2.80
2022-10-22T15:25:28.884Z,3.33
2022-10-22T15:28:00.674Z,3.08
2022-10-22T15:30:28.901Z,3.10
2022-10-22T15:32:55.772Z,3.22
2022-10-22T15:35:22.684Z,2.92
2022-10-22T15:37:51.926Z,3.28
2022-10-22T15:40:18.866Z,3.40
2022-10-22T15:42:46.742Z,2.92
2022-10-22T15:45:13.842Z,3.10
2022-10-22T15:47:41.020Z,3.50
2022-10-22T15:50:08.629Z,3.63
2022-10-22T15:52:35.683Z,3.22
2022-10-22T15:55:07.159Z,3.25
2022-10-22T15:57:34.070Z,2.83
2022-10-22T16:00:00.945Z,2.92
2022-10-22T16:02:27.826Z,3.40
2022-10-22T16:04:54.735Z,2.92
2022-10-22T16:07:23.988Z,3.00
2022-10-22T16:09:55.031Z,3.45
2022-10-22T16:12:21.953Z,3.17
2022-10-22T16:14:52.657Z,3.33
2022-10-22T16:17:19.501Z,3.30
2022-10-22T16:19:48.277Z,3.30
2022-10-22T16:22:15.851Z,2.78
2022-10-22T16:24:43.106Z,2.92
2022-10-22T16:27:10.733Z,2.30
2022-10-22T16:29:39.001Z,2.67
2022-10-22T16:32:06.553Z,2.72
2022-10-22T16:34:33.442Z,2.35
2022-10-22T16:37:00.485Z,3.13
2022-10-22T16:39:27.430Z,2.83
2022-10-22T16:41:54.429Z,2.80
2022-10-22T16:44:21.327Z,2.92
2022-10-22T16:46:48.349Z,3.15
2022-10-22T16:49:15.206Z,3.28
2022-10-22T16:51:42.108Z,3.00
2022-10-22T16:54:12.623Z,2.65
2022-10-22T16:56:39.696Z,3.10
2022-10-22T16:59:07.067Z,3.00
2022-10-22T17:01:36.883Z,3.17
2022-10-22T17:04:07.584Z,2.38
2022-10-22T17:06:34.489Z,3.30
2022-10-22T17:09:01.493Z,2.40
2022-10-22T17:11:34.732Z,3.03
2022-10-22T17:14:02.706Z,2.80
2022-10-22T17:16:30.194Z,3.08
2022-10-22T17:18:58.244Z,2.83
2022-10-22T17:21:25.432Z,2.83
2022-10-22T17:23:56.946Z,2.50
2022-10-22T17:26:27.215Z,2.35
2022-10-22T17:28:55.110Z,2.75
2022-10-22T17:31:23.758Z,3.08
2022-10-22T17:33:52.551Z,2.75
2022-10-22T17:36:20.889Z,2.72
2022-10-22T17:38:50.374Z,2.83
2022-10-22T17:41:20.275Z,2.63
2022-10-22T17:43:47.837Z,2.95
2022-10-22T17:46:17.676Z,2.53
2022-10-22T17:48:44.893Z,2.40
2022-10-22T17:51:13.638Z,2.70
2022-10-22T17:53:43.142Z,2.50
2022-10-22T17:56:12.401Z,3.88
2022-10-22T17:58:39.286Z,2.60
2022-10-22T18:01:06.647Z,2.47
2022-10-22T18:03:34.516Z,2.90
2022-10-22T18:06:07.419Z,2.80
2022-10-22T18:08:34.696Z,2.60
2022-10-22T18:11:10.088Z,2.47
2022-10-22T18:13:37.681Z,2.63
2022-10-22T18:16:04.894Z,3.13
2022-10-22T18:18:31.918Z,2.22
2022-10-22T18:21:00.594Z,2.60
2022-10-22T18:23:28.238Z,2.45
2022-10-22T18:25:55.199Z,2.45
2022-10-22T18:28:22.205Z,2.50
2022-10-22T18:30:49.661Z,2.20
2022-10-22T18:33:19.429Z,2.50
2022-10-22T18:35:46.845Z,2.40
2022-10-22T18:38:13.860Z,2.55
2022-10-22T18:40:46.949Z,2.30
2022-10-22T18:43:15.132Z,2.50
2022-10-22T18:45:46.840Z,2.35
2022-10-22T18:48:16.173Z,2.75
2022-10-22T18:50:43.629Z,2.60
2022-10-22T18:53:10.724Z,2.33
2022-10-22T18:55:39.671Z,2.20
2022-10-22T18:58:07.144Z,2.70
2022-10-22T19:00:35.809Z,2.38
2022-10-22T19:03:03.397Z,2.45
2022-10-22T19:05:30.778Z,2.38
2022-10-22T19:07:57.833Z,2.15
2022-10-22T19:10:24.707Z,2.40
2022-10-22T19:12:51.682Z,2.60
2022-10-22T19:15:18.625Z,2.15
2022-10-22T19:17:45.713Z,2.35
2022-10-22T19:20:13.391Z,2.30
2022-10-22T19:22:40.280Z,1.92
2022-10-22T19:25:11.158Z,2.08
2022-10-22T19:27:40.168Z,2.20
2022-10-22T19:30:07.756Z,2.40
2022-10-22T19:32:34.954Z,2.13
2022-10-22T19:35:02.114Z,2.40
2022-10-22T19:37:29.033Z,2.20
2022-10-22T19:39:55.873Z,2.15
2022-10-22T19:42:22.797Z,2.42
2022-10-22T19:44:49.729Z,2.03
2022-10-22T19:47:16.871Z,2.03
2022-10-22T19:49:43.903Z,2.55
2022-10-22T19:52:10.844Z,2.10
2022-10-22T19:54:40.895Z,2.05
2022-10-22T19:57:08.621Z,2.17
2022-10-22T19:59:35.752Z,2.50
2022-10-22T20:02:04.073Z,2.22
2022-10-22T20:04:31.267Z,2.67
2022-10-22T20:06:58.723Z,2.30
2022-10-22T20:09:25.687Z,2.53
2022-10-22T20:11:52.580Z,2.20
2022-10-22T20:14:19.447Z,2.42
2022-10-22T20:16:46.468Z,2.50
2022-10-22T20:19:16.277Z,2.40
2022-10-22T20:21:44.669Z,2.42
2022-10-22T20:24:12.822Z,2.42
2022-10-22T20:26:39.725Z,2.20
2022-10-22T20:29:07.798Z,2.13
2022-10-22T20:31:36.047Z,2.33
2022-10-22T20:34:03.021Z,2.35
2022-10-22T20:36:31.852Z,2.30
2022-10-22T20:39:06.398Z,2.33
2022-10-22T20:41:35.034Z,2.42
2022-10-22T20:44:01.994Z,2.50
2022-10-22T20:46:31.344Z,2.10
2022-10-22T20:49:07.391Z,2.63
2022-10-22T20:51:36.208Z,2.38
2022-10-22T20:54:03.973Z,2.50
2022-10-22T20:56:31.781Z,2.60
2022-10-22T20:59:05.533Z,2.42
2022-10-22T21:01:44.579Z,2.22
2022-10-22T21:04:11.568Z,2.95
2022-10-22T21:06:40.361Z,2.30
2022-10-22T21:09:08.782Z,2.83
2022-10-22T21:11:36.817Z,2.88
2022-10-22T21:14:05.682Z,3.03
2022-10-22T21:16:32.657Z,3.20
2022-10-22T21:19:00.067Z,2.95
2022-10-22T21:21:27.049Z,3.03
2022-10-22T21:23:54.495Z,3.50
2022-10-22T21:26:21.630Z,3.05
2022-10-22T21:28:49.129Z,3.28
2022-10-22T21:31:21.977Z,3.33
2022-10-22T21:33:50.613Z,3.70
2022-10-22T21:36:22.481Z,4.35
2022-10-22T21:38:51.463Z,3.53
2022-10-22T21:41:19.783Z,3.90
2022-10-22T21:43:46.756Z,3.42
2022-10-22T21:46:19.320Z,4.03
2022-10-22T21:48:46.932Z,3.85
2022-10-22T21:51:16.995Z,4.68
2022-10-22T21:53:44.134Z,4.90
2022-10-22T21:56:18.111Z,4.80
2022-10-22T21:58:45.216Z,4.40
2022-10-22T22:01:12.934Z,5.10
2022-10-22T22:03:46.019Z,5.95
2022-10-22T22:06:13.193Z,5.05
2022-10-22T22:08:40.768Z,4.72
2022-10-22T22:11:13.823Z,4.90
2022-10-22T22:13:40.972Z,6.78
2022-10-22T22:16:16.225Z,5.28
2022-10-22T22:18:43.435Z,4.50
2022-10-22T22:21:13.378Z,5.65
2022-10-22T22:23:43.017Z,4.38
2022-10-22T22:26:10.997Z,4.57
2022-10-22T22:28:38.593Z,4.72
2022-10-22T22:31:22.119Z,5.03
2022-10-22T22:33:49.385Z,4.70
2022-10-22T22:36:16.380Z,4.85
2022-10-22T22:38:43.226Z,4.30
2022-10-22T22:41:10.121Z,5.30
2022-10-22T22:43:37.887Z,4.68
2022-10-22T22:46:07.743Z,5.53
2022-10-22T22:48:35.278Z,5.90
2022-10-22T22:51:04.068Z,5.53
2022-10-22T22:53:31.762Z,5.35
2022-10-22T22:56:13.999Z,6.15
2022-10-22T22:58:41.928Z,4.82
2022-10-22T23:01:29.806Z,4.75
2022-10-22T23:03:59.868Z,5.30
2022-10-22T23:06:29.372Z,4.78
2022-10-22T23:08:58.130Z,5.40
2022-10-22T23:11:26.322Z,5.93
2022-10-22T23:13:55.580Z,4.10
2022-10-22T23:16:24.667Z,4.63
2022-10-22T23:18:54.131Z,4.88
2022-10-22T23:21:26.974Z,5.20
2022-10-22T23:23:57.187Z,4.88
2022-10-22T23:26:45.828Z,4.35
2022-10-22T23:29:19.548Z,4.63
2022-10-22T23:31:47.278Z,4.60
2022-10-22T23:34:17.483Z,4.63
2022-10-22T23:36:45.169Z,4.78
2022-10-22T23:39:14.620Z,4.20
2022-10-22T23:41:41.707Z,4.55
2022-10-22T23:44:09.882Z,4.03
2022-10-22T23:46:40.455Z,4.03
2022-10-22T23:49:09.391Z,3.72
2022-10-22T23:51:36.505Z,3.85
2022-10-22T23:54:06.501Z,3.95
2022-10-22T23:56:36.144Z,3.97
2022-10-22T23:59:04.135Z,3.60
